Aviation Digital Data Service (ADDS)

Output produced by METARs form (0430 UTC 24 January 2019)
found at http://www.aviationweather.gov/metar/data/
 
METAR text: VLLB 240400Z 09002KT 5000 BR OVC006 20/16 Q1018 NOSIG
Conditions at: VLLB (LUANG-PRABANG , LA) observed 0400 UTC 24 January 2019
Temperature: 20.0°C (68°F)
Dewpoint: 16.0°C (61°F) [RH = 78%]
Pressure (altimeter): 30.06 inches Hg (1018.0 mb)
Winds: from the E (90 degrees) at 2 MPH (2 knots; 1.0 m/s)
Visibility: 3 miles ( 5 km)
Ceiling: 600 feet AGL
Clouds: overcast cloud deck at 600 feet AGL
Weather: BR  (mist)

METAR text: VLLB 240300Z 02002KT 5000 BR OVC006 19/16 Q1018 NOSIG
Conditions at: VLLB (LUANG-PRABANG , LA) observed 0300 UTC 24 January 2019
Temperature: 19.0°C (66°F)
Dewpoint: 16.0°C (61°F) [RH = 83%]
Pressure (altimeter): 30.06 inches Hg (1018.0 mb)
Winds: from the NNE (20 degrees) at 2 MPH (2 knots; 1.0 m/s)
Visibility: 3 miles ( 5 km)
Ceiling: 600 feet AGL
Clouds: overcast cloud deck at 600 feet AGL
Weather: BR  (mist)

METAR text: VLLB 240200Z 04002KT 5000 BR OVC006 19/17 Q1018 NOSIG
Conditions at: VLLB (LUANG-PRABANG , LA) observed 0200 UTC 24 January 2019
Temperature: 19.0°C (66°F)
Dewpoint: 17.0°C (63°F) [RH = 88%]
Pressure (altimeter): 30.06 inches Hg (1018.0 mb)
Winds: from the NE (40 degrees) at 2 MPH (2 knots; 1.0 m/s)
Visibility: 3 miles ( 5 km)
Ceiling: 600 feet AGL
Clouds: overcast cloud deck at 600 feet AGL
Weather: BR  (mist)

METAR text: VLLB 240100Z 04004KT 3000 BR OVC006 18/17 Q1017 NOSIG
Conditions at: VLLB (LUANG-PRABANG , LA) observed 0100 UTC 24 January 2019
Temperature: 18.0°C (64°F)
Dewpoint: 17.0°C (63°F) [RH = 94%]
Pressure (altimeter): 30.03 inches Hg (1017.0 mb)
Winds: from the NE (40 degrees) at 5 MPH (4 knots; 2.1 m/s)
Visibility: 1.86 miles (2.99 km)
Ceiling: 600 feet AGL
Clouds: overcast cloud deck at 600 feet AGL
Weather: BR  (mist)

METAR text: VLLB 240000Z 04002KT 1000 BCFG OVC006 17/16 Q1016 NOSIG
Conditions at: VLLB (LUANG-PRABANG , LA) observed 0000 UTC 24 January 2019
Temperature: 17.0°C (63°F)
Dewpoint: 16.0°C (61°F) [RH = 94%]
Pressure (altimeter): 30.00 inches Hg (1016.0 mb)
Winds: from the NE (40 degrees) at 2 MPH (2 knots; 1.0 m/s)
Visibility: 0.62 miles (1.00 km)
Ceiling: 600 feet AGL
Clouds: overcast cloud deck at 600 feet AGL
Weather: BCFG  (patches of fog)

METAR text: VLLB 231300Z 09002KT CAVOK 22/18 Q1015 NOSIG
Conditions at: VLLB (LUANG-PRABANG , LA) observed 1300 UTC 23 January 2019
Temperature: 22.0°C (72°F)
Dewpoint: 18.0°C (64°F) [RH = 78%]
Pressure (altimeter): 29.97 inches Hg (1015.0 mb)
Winds: from the E (90 degrees) at 2 MPH (2 knots; 1.0 m/s)
Visibility: 6 or more miles (10+ km)
Ceiling: ceiling and visibility are OK
Clouds: unknown
Weather: no significant weather observed at this time

METAR text: VLLB 231200Z 02002KT CAVOK 24/19 Q1014 NOSIG
Conditions at: VLLB (LUANG-PRABANG , LA) observed 1200 UTC 23 January 2019
Temperature: 24.0°C (75°F)
Dewpoint: 19.0°C (66°F) [RH = 74%]
Pressure (altimeter): 29.94 inches Hg (1014.0 mb)
Winds: from the NNE (20 degrees) at 2 MPH (2 knots; 1.0 m/s)
Visibility: 6 or more miles (10+ km)
Ceiling: ceiling and visibility are OK
Clouds: unknown
Weather: no significant weather observed at this time

METAR text: VLLB 231100Z 04002KT 9999 FEW027 FEW060 27/19 Q1014 NOSIG
Conditions at: VLLB (LUANG-PRABANG , LA) observed 1100 UTC 23 January 2019
Temperature: 27.0°C (81°F)
Dewpoint: 19.0°C (66°F) [RH = 62%]
Pressure (altimeter): 29.94 inches Hg (1014.0 mb)
Winds: from the NE (40 degrees) at 2 MPH (2 knots; 1.0 m/s)
Visibility: 6 or more miles (10+ km)
Ceiling: at least 12,000 feet AGL
Clouds: few clouds at 2700 feet AGL
few clouds at 6000 feet AGL
Weather: no significant weather observed at this time

METAR text: VLLB 231000Z 02002KT 9999 FEW027 FEW060 28/19 Q1013 NOSIG
Conditions at: VLLB (LUANG-PRABANG , LA) observed 1000 UTC 23 January 2019
Temperature: 28.0°C (82°F)
Dewpoint: 19.0°C (66°F) [RH = 58%]
Pressure (altimeter): 29.91 inches Hg (1013.0 mb)
Winds: from the NNE (20 degrees) at 2 MPH (2 knots; 1.0 m/s)
Visibility: 6 or more miles (10+ km)
Ceiling: at least 12,000 feet AGL
Clouds: few clouds at 2700 feet AGL
few clouds at 6000 feet AGL
Weather: no significant weather observed at this time

METAR text: VLLB 230900Z 12002KT 9999 FEW020 FEW060 28/17 Q1014 NOSIG
Conditions at: VLLB (LUANG-PRABANG , LA) observed 0900 UTC 23 January 2019
Temperature: 28.0°C (82°F)
Dewpoint: 17.0°C (63°F) [RH = 51%]
Pressure (altimeter): 29.94 inches Hg (1014.0 mb)
Winds: from the ESE (120 degrees) at 2 MPH (2 knots; 1.0 m/s)
Visibility: 6 or more miles (10+ km)
Ceiling: at least 12,000 feet AGL
Clouds: few clouds at 2000 feet AGL
few clouds at 6000 feet AGL
Weather: no significant weather observed at this time

METAR text: VLLB 230700Z 27004KT 9999 SCT017 FEW060 26/18 Q1015 NOSIG
Conditions at: VLLB (LUANG-PRABANG , LA) observed 0700 UTC 23 January 2019
Temperature: 26.0°C (79°F)
Dewpoint: 18.0°C (64°F) [RH = 61%]
Pressure (altimeter): 29.97 inches Hg (1015.0 mb)
Winds: from the W (270 degrees) at 5 MPH (4 knots; 2.1 m/s)
Visibility: 6 or more miles (10+ km)
Ceiling: at least 12,000 feet AGL
Clouds: scattered clouds at 1700 feet AGL
few clouds at 6000 feet AGL
Weather: no significant weather observed at this time

METAR text: VLLB 230600Z 27004KT 9999 SCT017 FEW060 24/17 Q1016 NOSIG
Conditions at: VLLB (LUANG-PRABANG , LA) observed 0600 UTC 23 January 2019
Temperature: 24.0°C (75°F)
Dewpoint: 17.0°C (63°F) [RH = 65%]
Pressure (altimeter): 30.00 inches Hg (1016.0 mb)
Winds: from the W (270 degrees) at 5 MPH (4 knots; 2.1 m/s)
Visibility: 6 or more miles (10+ km)
Ceiling: at least 12,000 feet AGL
Clouds: scattered clouds at 1700 feet AGL
few clouds at 6000 feet AGL
Weather: no significant weather observed at this time

METAR text: VLLB 230500Z 02002KT 9999 SCT010 SCT060 24/17 Q1018 NOSIG
Conditions at: VLLB (LUANG-PRABANG , LA) observed 0500 UTC 23 January 2019
Temperature: 24.0°C (75°F)
Dewpoint: 17.0°C (63°F) [RH = 65%]
Pressure (altimeter): 30.06 inches Hg (1018.0 mb)
Winds: from the NNE (20 degrees) at 2 MPH (2 knots; 1.0 m/s)
Visibility: 6 or more miles (10+ km)
Ceiling: at least 12,000 feet AGL
Clouds: scattered clouds at 1000 feet AGL
scattered clouds at 6000 feet AGL
Weather: no significant weather observed at this time

METAR text: VLLB 230400Z 36002KT 9999 OVC006 22/16 Q1018 NOSIG
Conditions at: VLLB (LUANG-PRABANG , LA) observed 0400 UTC 23 January 2019
Temperature: 22.0°C (72°F)
Dewpoint: 16.0°C (61°F) [RH = 69%]
Pressure (altimeter): 30.06 inches Hg (1018.0 mb)
Winds: from the N (360 degrees) at 2 MPH (2 knots; 1.0 m/s)
Visibility: 6 or more miles (10+ km)
Ceiling: 600 feet AGL
Clouds: overcast cloud deck at 600 feet AGL
Weather: no significant weather observed at this time

METAR text: VLLB 230300Z 36002KT 9999 OVC006 20/16 Q1019 NOSIG
Conditions at: VLLB (LUANG-PRABANG , LA) observed 0300 UTC 23 January 2019
Temperature: 20.0°C (68°F)
Dewpoint: 16.0°C (61°F) [RH = 78%]
Pressure (altimeter): 30.09 inches Hg (1019.0 mb)
Winds: from the N (360 degrees) at 2 MPH (2 knots; 1.0 m/s)
Visibility: 6 or more miles (10+ km)
Ceiling: 600 feet AGL
Clouds: overcast cloud deck at 600 feet AGL
Weather: no significant weather observed at this time

METAR text: VLLB 230200Z 36002KT 9999 OVC006 20/16 Q1019 NOSIG
Conditions at: VLLB (LUANG-PRABANG , LA) observed 0200 UTC 23 January 2019
Temperature: 20.0°C (68°F)
Dewpoint: 16.0°C (61°F) [RH = 78%]
Pressure (altimeter): 30.09 inches Hg (1019.0 mb)
Winds: from the N (360 degrees) at 2 MPH (2 knots; 1.0 m/s)
Visibility: 6 or more miles (10+ km)
Ceiling: 600 feet AGL
Clouds: overcast cloud deck at 600 feet AGL
Weather: no significant weather observed at this time

METAR text: VLLB 230100Z 02002KT 8000 OVC006 19/16 Q1018 NOSIG
Conditions at: VLLB (LUANG-PRABANG , LA) observed 0100 UTC 23 January 2019
Temperature: 19.0°C (66°F)
Dewpoint: 16.0°C (61°F) [RH = 83%]
Pressure (altimeter): 30.06 inches Hg (1018.0 mb)
Winds: from the NNE (20 degrees) at 2 MPH (2 knots; 1.0 m/s)
Visibility: 5 miles ( 8 km)
Ceiling: 600 feet AGL
Clouds: overcast cloud deck at 600 feet AGL
Weather: no significant weather observed at this time

METAR text: VLLB 230000Z 00000KT 8000 OVC006 19/16 Q1017 NOSIG
Conditions at: VLLB (LUANG-PRABANG , LA) observed 0000 UTC 23 January 2019
Temperature: 19.0°C (66°F)
Dewpoint: 16.0°C (61°F) [RH = 83%]
Pressure (altimeter): 30.03 inches Hg (1017.0 mb)
Winds: calm
Visibility: 5 miles ( 8 km)
Ceiling: 600 feet AGL
Clouds: overcast cloud deck at 600 feet AGL
Weather: no significant weather observed at this time

Forecast for: VLLB (LUANG-PRABANG , LA)
Text: TAF VLLB 232300Z 2400/2424 36004KT 9999 SCT020 SCT060
Forecast period: 0000 UTC 24 January 2019 to 0000 UTC 25 January 2019
Forecast type: FROM: standard forecast or significant change
Winds: from the N (360 degrees) at 5 MPH (4 knots; 2.1 m/s)
Visibility: 6 or more miles 10+ km)
Ceiling: at least 12,000 feet AGL
Clouds: scattered clouds at 2000 feet AGL
scattered clouds at 6000 feet AGL
Weather: no significant weather forecast for this period
Text: TEMPO 2416/2420 3000 BR OVC006
Forecast period: 1600 to 2000 UTC 24 January 2019
Forecast type: TEMPORARY: The following changes expected for less than half the time period
Visibility: 1.86 miles (2.99 km)
Ceiling: 600 feet AGL
Clouds: overcast cloud deck at 600 feet AGL
Weather: BR  (mist)